sensor_id;sensor_type;location;lat;lon;timestamp;temperature;humidity
42261;DHT22;27926;48.062;7.474;2023-06-22T00:01:46;21.00;99.90
42261;DHT22;27926;48.062;7.474;2023-06-22T00:04:11;21.00;99.90
42261;DHT22;27926;48.062;7.474;2023-06-22T00:06:35;21.00;99.90
42261;DHT22;27926;48.062;7.474;2023-06-22T00:09:00;20.90;99.90
42261;DHT22;27926;48.062;7.474;2023-06-22T00:11:24;21.00;99.90
42261;DHT22;27926;48.062;7.474;2023-06-22T00:13:49;21.00;99.90
42261;DHT22;27926;48.062;7.474;2023-06-22T00:16:15;21.00;99.90
42261;DHT22;27926;48.062;7.474;2023-06-22T00:18:39;21.00;99.90
42261;DHT22;27926;48.062;7.474;2023-06-22T00:21:11;21.00;99.90
42261;DHT22;27926;48.062;7.474;2023-06-22T00:23:36;21.00;99.90
42261;DHT22;27926;48.062;7.474;2023-06-22T00:26:01;21.00;99.90
42261;DHT22;27926;48.062;7.474;2023-06-22T00:28:26;21.00;99.90
42261;DHT22;27926;48.062;7.474;2023-06-22T00:30:50;21.00;99.90
42261;DHT22;27926;48.062;7.474;2023-06-22T00:33:15;21.00;99.90
42261;DHT22;27926;48.062;7.474;2023-06-22T00:35:40;21.00;99.90
42261;DHT22;27926;48.062;7.474;2023-06-22T00:38:05;21.00;99.90
42261;DHT22;27926;48.062;7.474;2023-06-22T00:40:33;21.00;99.90
42261;DHT22;27926;48.062;7.474;2023-06-22T00:43:00;21.00;99.90
42261;DHT22;27926;48.062;7.474;2023-06-22T00:45:26;20.90;99.90
42261;DHT22;27926;48.062;7.474;2023-06-22T00:47:51;20.90;99.90
42261;DHT22;27926;48.062;7.474;2023-06-22T00:50:19;20.90;99.90
42261;DHT22;27926;48.062;7.474;2023-06-22T00:52:45;20.80;99.90
42261;DHT22;27926;48.062;7.474;2023-06-22T00:55:10;20.70;99.90
42261;DHT22;27926;48.062;7.474;2023-06-22T00:57:35;20.70;99.90
42261;DHT22;27926;48.062;7.474;2023-06-22T01:00:01;20.60;99.90
42261;DHT22;27926;48.062;7.474;2023-06-22T01:02:36;20.60;99.90
42261;DHT22;27926;48.062;7.474;2023-06-22T01:05:01;20.50;99.90
42261;DHT22;27926;48.062;7.474;2023-06-22T01:07:34;20.50;99.90
42261;DHT22;27926;48.062;7.474;2023-06-22T01:10:16;20.50;99.90
42261;DHT22;27926;48.062;7.474;2023-06-22T01:12:52;20.50;99.90
42261;DHT22;27926;48.062;7.474;2023-06-22T01:15:35;20.50;99.90
42261;DHT22;27926;48.062;7.474;2023-06-22T01:18:04;20.50;99.90
42261;DHT22;27926;48.062;7.474;2023-06-22T01:20:31;20.50;99.90
42261;DHT22;27926;48.062;7.474;2023-06-22T01:26:08;20.50;99.90
42261;DHT22;27926;48.062;7.474;2023-06-22T01:28:56;20.40;99.90
42261;DHT22;27926;48.062;7.474;2023-06-22T01:31:24;20.40;99.90
42261;DHT22;27926;48.062;7.474;2023-06-22T01:33:52;20.30;99.90
42261;DHT22;27926;48.062;7.474;2023-06-22T01:36:18;20.30;99.90
42261;DHT22;27926;48.062;7.474;2023-06-22T01:38:44;20.20;99.90
42261;DHT22;27926;48.062;7.474;2023-06-22T01:41:10;20.20;99.90
42261;DHT22;27926;48.062;7.474;2023-06-22T01:43:36;20.10;99.90
42261;DHT22;27926;48.062;7.474;2023-06-22T01:46:02;20.00;99.90
42261;DHT22;27926;48.062;7.474;2023-06-22T01:48:27;20.00;99.90
42261;DHT22;27926;48.062;7.474;2023-06-22T01:50:53;19.90;99.90
42261;DHT22;27926;48.062;7.474;2023-06-22T01:53:18;19.90;99.90
42261;DHT22;27926;48.062;7.474;2023-06-22T01:55:42;20.20;99.90
42261;DHT22;27926;48.062;7.474;2023-06-22T01:58:07;19.80;99.90
42261;DHT22;27926;48.062;7.474;2023-06-22T02:00:36;19.80;99.90
42261;DHT22;27926;48.062;7.474;2023-06-22T02:03:14;19.70;99.90
42261;DHT22;27926;48.062;7.474;2023-06-22T02:06:04;19.60;99.90
42261;DHT22;27926;48.062;7.474;2023-06-22T02:08:35;19.60;99.90
42261;DHT22;27926;48.062;7.474;2023-06-22T02:11:02;19.60;99.90
42261;DHT22;27926;48.062;7.474;2023-06-22T02:13:27;19.50;99.90
42261;DHT22;27926;48.062;7.474;2023-06-22T02:15:52;19.50;99.90
42261;DHT22;27926;48.062;7.474;2023-06-22T02:18:17;19.50;99.90
42261;DHT22;27926;48.062;7.474;2023-06-22T02:20:42;19.50;99.90
42261;DHT22;27926;48.062;7.474;2023-06-22T02:23:07;19.50;99.90
42261;DHT22;27926;48.062;7.474;2023-06-22T02:25:32;19.40;99.90
42261;DHT22;27926;48.062;7.474;2023-06-22T02:27:57;19.40;99.90
42261;DHT22;27926;48.062;7.474;2023-06-22T02:30:22;19.40;99.90
42261;DHT22;27926;48.062;7.474;2023-06-22T02:32:46;19.30;99.90
42261;DHT22;27926;48.062;7.474;2023-06-22T02:35:11;19.40;99.90
42261;DHT22;27926;48.062;7.474;2023-06-22T02:37:36;19.30;99.90
42261;DHT22;27926;48.062;7.474;2023-06-22T02:40:10;19.30;99.90
42261;DHT22;27926;48.062;7.474;2023-06-22T02:42:35;19.30;99.90
42261;DHT22;27926;48.062;7.474;2023-06-22T02:45:00;19.20;99.90
42261;DHT22;27926;48.062;7.474;2023-06-22T02:47:25;19.20;99.90
42261;DHT22;27926;48.062;7.474;2023-06-22T02:49:50;19.20;99.90
42261;DHT22;27926;48.062;7.474;2023-06-22T02:52:15;19.20;99.90
42261;DHT22;27926;48.062;7.474;2023-06-22T02:54:39;19.20;99.90
42261;DHT22;27926;48.062;7.474;2023-06-22T02:57:04;19.20;99.90
42261;DHT22;27926;48.062;7.474;2023-06-22T02:59:29;19.20;99.90
42261;DHT22;27926;48.062;7.474;2023-06-22T03:01:53;19.20;99.90
42261;DHT22;27926;48.062;7.474;2023-06-22T03:04:18;19.20;99.90
42261;DHT22;27926;48.062;7.474;2023-06-22T03:06:43;19.20;99.90
42261;DHT22;27926;48.062;7.474;2023-06-22T03:09:07;19.20;99.90
42261;DHT22;27926;48.062;7.474;2023-06-22T03:11:33;19.20;99.90
42261;DHT22;27926;48.062;7.474;2023-06-22T03:13:59;19.10;99.90
42261;DHT22;27926;48.062;7.474;2023-06-22T03:16:24;19.10;99.90
42261;DHT22;27926;48.062;7.474;2023-06-22T03:18:49;19.00;99.90
42261;DHT22;27926;48.062;7.474;2023-06-22T03:21:13;19.00;99.90
42261;DHT22;27926;48.062;7.474;2023-06-22T03:23:39;19.00;99.90
42261;DHT22;27926;48.062;7.474;2023-06-22T03:26:04;19.10;99.90
42261;DHT22;27926;48.062;7.474;2023-06-22T03:28:28;19.10;99.90
42261;DHT22;27926;48.062;7.474;2023-06-22T03:30:54;19.10;99.90
42261;DHT22;27926;48.062;7.474;2023-06-22T03:33:18;19.00;99.90
42261;DHT22;27926;48.062;7.474;2023-06-22T03:35:43;19.00;99.90
42261;DHT22;27926;48.062;7.474;2023-06-22T03:38:08;19.00;99.90
42261;DHT22;27926;48.062;7.474;2023-06-22T03:40:37;18.90;99.90
42261;DHT22;27926;48.062;7.474;2023-06-22T03:43:02;19.10;99.90
42261;DHT22;27926;48.062;7.474;2023-06-22T03:45:26;19.10;99.90
42261;DHT22;27926;48.062;7.474;2023-06-22T03:47:51;19.10;99.90
42261;DHT22;27926;48.062;7.474;2023-06-22T03:50:15;19.20;99.90
42261;DHT22;27926;48.062;7.474;2023-06-22T03:52:40;19.20;99.90
42261;DHT22;27926;48.062;7.474;2023-06-22T03:55:06;19.30;99.90
42261;DHT22;27926;48.062;7.474;2023-06-22T03:57:33;19.30;99.90
42261;DHT22;27926;48.062;7.474;2023-06-22T03:59:58;19.40;99.90
42261;DHT22;27926;48.062;7.474;2023-06-22T04:02:23;19.40;99.90
42261;DHT22;27926;48.062;7.474;2023-06-22T04:04:47;19.40;99.90
42261;DHT22;27926;48.062;7.474;2023-06-22T04:07:12;19.50;99.90
42261;DHT22;27926;48.062;7.474;2023-06-22T04:09:37;19.50;99.90
42261;DHT22;27926;48.062;7.474;2023-06-22T04:12:02;19.60;99.90
42261;DHT22;27926;48.062;7.474;2023-06-22T04:14:27;19.70;99.90
42261;DHT22;27926;48.062;7.474;2023-06-22T04:16:52;19.70;99.90
42261;DHT22;27926;48.062;7.474;2023-06-22T04:19:16;19.80;99.90
42261;DHT22;27926;48.062;7.474;2023-06-22T04:21:45;19.90;99.90
42261;DHT22;27926;48.062;7.474;2023-06-22T04:24:10;20.00;99.90
42261;DHT22;27926;48.062;7.474;2023-06-22T04:26:35;20.10;99.90
42261;DHT22;27926;48.062;7.474;2023-06-22T04:29:01;20.10;99.90
42261;DHT22;27926;48.062;7.474;2023-06-22T04:31:29;20.10;99.90
42261;DHT22;27926;48.062;7.474;2023-06-22T04:33:56;20.30;99.90
42261;DHT22;27926;48.062;7.474;2023-06-22T04:36:20;20.50;99.90
42261;DHT22;27926;48.062;7.474;2023-06-22T04:38:45;20.70;99.90
42261;DHT22;27926;48.062;7.474;2023-06-22T04:41:10;21.00;99.90
42261;DHT22;27926;48.062;7.474;2023-06-22T04:43:38;21.20;99.90
42261;DHT22;27926;48.062;7.474;2023-06-22T04:46:03;21.60;99.90
42261;DHT22;27926;48.062;7.474;2023-06-22T04:48:28;21.90;99.90
42261;DHT22;27926;48.062;7.474;2023-06-22T04:50:56;22.30;99.90
42261;DHT22;27926;48.062;7.474;2023-06-22T04:53:27;22.70;99.90
42261;DHT22;27926;48.062;7.474;2023-06-22T04:55:54;23.00;99.90
42261;DHT22;27926;48.062;7.474;2023-06-22T04:58:18;23.20;99.90
42261;DHT22;27926;48.062;7.474;2023-06-22T05:00:45;23.60;99.90
42261;DHT22;27926;48.062;7.474;2023-06-22T05:03:10;23.80;99.90
42261;DHT22;27926;48.062;7.474;2023-06-22T05:05:35;24.10;99.90
42261;DHT22;27926;48.062;7.474;2023-06-22T05:08:01;24.50;99.90
42261;DHT22;27926;48.062;7.474;2023-06-22T05:10:25;24.70;99.90
42261;DHT22;27926;48.062;7.474;2023-06-22T05:12:50;25.00;99.90
42261;DHT22;27926;48.062;7.474;2023-06-22T05:15:15;25.30;99.90
42261;DHT22;27926;48.062;7.474;2023-06-22T05:17:39;25.50;99.90
42261;DHT22;27926;48.062;7.474;2023-06-22T05:20:10;25.40;99.90
42261;DHT22;27926;48.062;7.474;2023-06-22T05:22:35;25.40;99.90
42261;DHT22;27926;48.062;7.474;2023-06-22T05:25:05;25.40;99.90
42261;DHT22;27926;48.062;7.474;2023-06-22T05:27:30;25.60;99.90
42261;DHT22;27926;48.062;7.474;2023-06-22T05:29:55;25.70;99.90
42261;DHT22;27926;48.062;7.474;2023-06-22T05:32:19;26.00;99.90
42261;DHT22;27926;48.062;7.474;2023-06-22T05:34:44;26.30;99.90
42261;DHT22;27926;48.062;7.474;2023-06-22T05:37:09;26.70;99.90
42261;DHT22;27926;48.062;7.474;2023-06-22T05:39:34;27.20;99.90
42261;DHT22;27926;48.062;7.474;2023-06-22T05:41:58;27.50;99.90
42261;DHT22;27926;48.062;7.474;2023-06-22T05:44:23;27.80;99.90
42261;DHT22;27926;48.062;7.474;2023-06-22T05:46:48;27.80;99.90
42261;DHT22;27926;48.062;7.474;2023-06-22T05:49:13;27.90;99.90
42261;DHT22;27926;48.062;7.474;2023-06-22T05:51:37;28.20;99.90
42261;DHT22;27926;48.062;7.474;2023-06-22T05:54:02;28.20;99.90
42261;DHT22;27926;48.062;7.474;2023-06-22T05:56:27;27.80;99.90
42261;DHT22;27926;48.062;7.474;2023-06-22T05:58:51;27.60;99.90
42261;DHT22;27926;48.062;7.474;2023-06-22T06:01:16;27.30;99.90
42261;DHT22;27926;48.062;7.474;2023-06-22T06:03:41;27.40;99.90
42261;DHT22;27926;48.062;7.474;2023-06-22T06:06:06;27.50;99.90
42261;DHT22;27926;48.062;7.474;2023-06-22T06:08:30;27.60;99.90
42261;DHT22;27926;48.062;7.474;2023-06-22T06:10:55;28.10;99.90
42261;DHT22;27926;48.062;7.474;2023-06-22T06:13:21;28.10;99.90
42261;DHT22;27926;48.062;7.474;2023-06-22T06:15:47;28.40;99.90
42261;DHT22;27926;48.062;7.474;2023-06-22T06:18:12;28.30;99.90
42261;DHT22;27926;48.062;7.474;2023-06-22T06:20:37;27.80;99.90
42261;DHT22;27926;48.062;7.474;2023-06-22T06:23:01;27.70;99.90
42261;DHT22;27926;48.062;7.474;2023-06-22T06:25:26;27.60;99.90
42261;DHT22;27926;48.062;7.474;2023-06-22T06:27:51;27.30;99.90
42261;DHT22;27926;48.062;7.474;2023-06-22T06:30:18;27.50;99.90
42261;DHT22;27926;48.062;7.474;2023-06-22T06:32:44;28.00;99.90
42261;DHT22;27926;48.062;7.474;2023-06-22T06:35:10;28.00;99.90
42261;DHT22;27926;48.062;7.474;2023-06-22T06:37:36;28.00;99.90
42261;DHT22;27926;48.062;7.474;2023-06-22T06:40:02;28.40;99.90
42261;DHT22;27926;48.062;7.474;2023-06-22T06:42:26;29.00;99.90
42261;DHT22;27926;48.062;7.474;2023-06-22T06:44:51;29.50;99.90
42261;DHT22;27926;48.062;7.474;2023-06-22T06:47:16;29.60;99.90
42261;DHT22;27926;48.062;7.474;2023-06-22T06:49:41;29.40;99.90
42261;DHT22;27926;48.062;7.474;2023-06-22T06:52:06;28.70;99.90
42261;DHT22;27926;48.062;7.474;2023-06-22T06:54:31;28.00;99.90
42261;DHT22;27926;48.062;7.474;2023-06-22T06:56:55;27.20;99.90
42261;DHT22;27926;48.062;7.474;2023-06-22T06:59:20;26.20;99.90
42261;DHT22;27926;48.062;7.474;2023-06-22T07:01:46;25.70;99.90
42261;DHT22;27926;48.062;7.474;2023-06-22T07:04:13;25.30;99.90
42261;DHT22;27926;48.062;7.474;2023-06-22T07:06:37;25.00;99.90
42261;DHT22;27926;48.062;7.474;2023-06-22T07:09:03;24.80;99.90
42261;DHT22;27926;48.062;7.474;2023-06-22T07:11:27;25.10;99.90
42261;DHT22;27926;48.062;7.474;2023-06-22T07:13:52;25.60;99.90
42261;DHT22;27926;48.062;7.474;2023-06-22T07:16:17;26.20;99.90
42261;DHT22;27926;48.062;7.474;2023-06-22T07:18:42;26.70;99.90
42261;DHT22;27926;48.062;7.474;2023-06-22T07:21:10;27.10;99.90
42261;DHT22;27926;48.062;7.474;2023-06-22T07:23:34;27.20;99.90
42261;DHT22;27926;48.062;7.474;2023-06-22T07:25:59;27.20;99.90
42261;DHT22;27926;48.062;7.474;2023-06-22T07:28:26;27.30;99.90
42261;DHT22;27926;48.062;7.474;2023-06-22T07:30:50;27.40;99.90
42261;DHT22;27926;48.062;7.474;2023-06-22T07:33:15;27.40;99.90
42261;DHT22;27926;48.062;7.474;2023-06-22T07:35:41;27.50;99.90
42261;DHT22;27926;48.062;7.474;2023-06-22T07:38:06;27.50;99.90
42261;DHT22;27926;48.062;7.474;2023-06-22T07:40:31;27.40;99.90
42261;DHT22;27926;48.062;7.474;2023-06-22T07:42:55;27.20;99.90
42261;DHT22;27926;48.062;7.474;2023-06-22T07:45:20;27.10;99.90
42261;DHT22;27926;48.062;7.474;2023-06-22T07:47:45;27.30;99.90
42261;DHT22;27926;48.062;7.474;2023-06-22T07:50:10;27.50;99.90
42261;DHT22;27926;48.062;7.474;2023-06-22T07:52:34;27.60;99.90
42261;DHT22;27926;48.062;7.474;2023-06-22T07:54:59;27.50;99.90
42261;DHT22;27926;48.062;7.474;2023-06-22T07:57:24;27.30;99.90
42261;DHT22;27926;48.062;7.474;2023-06-22T07:59:56;27.50;99.90
42261;DHT22;27926;48.062;7.474;2023-06-22T08:02:21;27.60;99.90
42261;DHT22;27926;48.062;7.474;2023-06-22T08:04:45;27.40;99.90
42261;DHT22;27926;48.062;7.474;2023-06-22T08:07:10;27.50;99.90
42261;DHT22;27926;48.062;7.474;2023-06-22T08:09:35;27.40;99.90
42261;DHT22;27926;48.062;7.474;2023-06-22T08:12:00;27.40;99.90
42261;DHT22;27926;48.062;7.474;2023-06-22T08:14:26;27.20;99.90
42261;DHT22;27926;48.062;7.474;2023-06-22T08:16:51;27.20;99.90
42261;DHT22;27926;48.062;7.474;2023-06-22T08:19:16;27.20;99.90
42261;DHT22;27926;48.062;7.474;2023-06-22T08:21:40;27.30;99.90
42261;DHT22;27926;48.062;7.474;2023-06-22T08:24:05;27.30;99.90
42261;DHT22;27926;48.062;7.474;2023-06-22T08:26:31;27.20;99.90
42261;DHT22;27926;48.062;7.474;2023-06-22T08:28:57;27.00;99.90
42261;DHT22;27926;48.062;7.474;2023-06-22T08:31:22;26.80;99.90
42261;DHT22;27926;48.062;7.474;2023-06-22T08:33:47;26.60;99.90
42261;DHT22;27926;48.062;7.474;2023-06-22T08:36:11;26.50;99.90
42261;DHT22;27926;48.062;7.474;2023-06-22T08:38:37;26.50;99.90
42261;DHT22;27926;48.062;7.474;2023-06-22T08:41:02;26.70;99.90
42261;DHT22;27926;48.062;7.474;2023-06-22T08:43:27;26.90;99.90
42261;DHT22;27926;48.062;7.474;2023-06-22T08:45:51;27.20;99.90
42261;DHT22;27926;48.062;7.474;2023-06-22T08:48:16;27.60;99.90
42261;DHT22;27926;48.062;7.474;2023-06-22T08:50:41;28.10;99.90
42261;DHT22;27926;48.062;7.474;2023-06-22T08:53:06;28.30;99.90
42261;DHT22;27926;48.062;7.474;2023-06-22T08:55:30;28.40;99.90
42261;DHT22;27926;48.062;7.474;2023-06-22T08:57:55;28.80;99.90
42261;DHT22;27926;48.062;7.474;2023-06-22T09:00:20;27.90;99.90
42261;DHT22;27926;48.062;7.474;2023-06-22T09:02:45;27.70;99.90
42261;DHT22;27926;48.062;7.474;2023-06-22T09:05:10;27.50;99.90
42261;DHT22;27926;48.062;7.474;2023-06-22T09:07:35;27.40;99.90
42261;DHT22;27926;48.062;7.474;2023-06-22T09:10:00;27.50;99.90
42261;DHT22;27926;48.062;7.474;2023-06-22T09:12:24;27.60;99.90
42261;DHT22;27926;48.062;7.474;2023-06-22T09:14:51;27.70;99.90
42261;DHT22;27926;48.062;7.474;2023-06-22T09:17:16;27.80;99.90
42261;DHT22;27926;48.062;7.474;2023-06-22T09:19:41;28.00;99.90
42261;DHT22;27926;48.062;7.474;2023-06-22T09:22:05;28.10;99.90
42261;DHT22;27926;48.062;7.474;2023-06-22T09:24:33;28.30;99.90
42261;DHT22;27926;48.062;7.474;2023-06-22T09:26:57;28.50;99.90
42261;DHT22;27926;48.062;7.474;2023-06-22T09:29:22;28.70;99.90
42261;DHT22;27926;48.062;7.474;2023-06-22T09:31:47;28.90;99.90
42261;DHT22;27926;48.062;7.474;2023-06-22T09:34:11;29.30;99.90
42261;DHT22;27926;48.062;7.474;2023-06-22T09:36:36;29.50;99.90
42261;DHT22;27926;48.062;7.474;2023-06-22T09:39:01;29.80;99.90
42261;DHT22;27926;48.062;7.474;2023-06-22T09:41:30;29.80;99.90
42261;DHT22;27926;48.062;7.474;2023-06-22T09:43:54;29.80;99.90
42261;DHT22;27926;48.062;7.474;2023-06-22T09:46:19;30.00;99.90
42261;DHT22;27926;48.062;7.474;2023-06-22T09:48:46;30.30;99.90
42261;DHT22;27926;48.062;7.474;2023-06-22T09:51:11;30.40;99.90
42261;DHT22;27926;48.062;7.474;2023-06-22T09:53:36;30.60;99.90
42261;DHT22;27926;48.062;7.474;2023-06-22T09:56:02;30.80;99.90
42261;DHT22;27926;48.062;7.474;2023-06-22T09:58:26;31.00;99.90
42261;DHT22;27926;48.062;7.474;2023-06-22T10:00:51;31.20;99.00
42261;DHT22;27926;48.062;7.474;2023-06-22T10:03:17;30.90;99.80
42261;DHT22;27926;48.062;7.474;2023-06-22T10:05:41;30.80;99.70
42261;DHT22;27926;48.062;7.474;2023-06-22T10:08:06;31.10;99.10
42261;DHT22;27926;48.062;7.474;2023-06-22T10:10:33;31.20;99.20
42261;DHT22;27926;48.062;7.474;2023-06-22T10:13:04;31.40;99.30
42261;DHT22;27926;48.062;7.474;2023-06-22T10:15:32;31.50;98.40
42261;DHT22;27926;48.062;7.474;2023-06-22T10:17:56;31.80;98.90
42261;DHT22;27926;48.062;7.474;2023-06-22T10:20:21;31.80;99.10
42261;DHT22;27926;48.062;7.474;2023-06-22T10:22:46;31.60;98.80
42261;DHT22;27926;48.062;7.474;2023-06-22T10:25:12;31.70;98.60
42261;DHT22;27926;48.062;7.474;2023-06-22T10:27:37;31.80;98.60
42261;DHT22;27926;48.062;7.474;2023-06-22T10:30:04;31.80;98.40
42261;DHT22;27926;48.062;7.474;2023-06-22T10:32:29;31.90;98.50
42261;DHT22;27926;48.062;7.474;2023-06-22T10:34:54;31.80;98.10
42261;DHT22;27926;48.062;7.474;2023-06-22T10:37:19;31.40;98.60
42261;DHT22;27926;48.062;7.474;2023-06-22T10:39:43;31.10;99.10
42261;DHT22;27926;48.062;7.474;2023-06-22T10:42:08;30.70;99.80
42261;DHT22;27926;48.062;7.474;2023-06-22T10:44:33;30.50;99.90
42261;DHT22;27926;48.062;7.474;2023-06-22T10:46:57;30.70;99.30
42261;DHT22;27926;48.062;7.474;2023-06-22T10:49:22;30.90;99.40
42261;DHT22;27926;48.062;7.474;2023-06-22T10:51:46;31.10;99.10
42261;DHT22;27926;48.062;7.474;2023-06-22T10:54:12;31.10;99.30
42261;DHT22;27926;48.062;7.474;2023-06-22T10:56:38;31.10;98.60
42261;DHT22;27926;48.062;7.474;2023-06-22T10:59:02;30.90;99.10
42261;DHT22;27926;48.062;7.474;2023-06-22T11:01:27;30.90;99.30
42261;DHT22;27926;48.062;7.474;2023-06-22T11:03:52;31.00;99.70
42261;DHT22;27926;48.062;7.474;2023-06-22T11:06:16;31.10;99.40
42261;DHT22;27926;48.062;7.474;2023-06-22T11:08:44;31.30;99.50
42261;DHT22;27926;48.062;7.474;2023-06-22T11:11:09;31.40;98.30
42261;DHT22;27926;48.062;7.474;2023-06-22T11:13:33;31.30;98.20
42261;DHT22;27926;48.062;7.474;2023-06-22T11:15:58;31.10;98.40
42261;DHT22;27926;48.062;7.474;2023-06-22T11:18:23;30.80;98.00
42261;DHT22;27926;48.062;7.474;2023-06-22T11:20:48;30.50;98.50
42261;DHT22;27926;48.062;7.474;2023-06-22T11:23:13;30.30;98.60
42261;DHT22;27926;48.062;7.474;2023-06-22T11:25:38;30.00;98.80
42261;DHT22;27926;48.062;7.474;2023-06-22T11:28:03;29.70;99.30
42261;DHT22;27926;48.062;7.474;2023-06-22T11:30:28;29.60;99.40
42261;DHT22;27926;48.062;7.474;2023-06-22T11:32:52;29.70;99.80
42261;DHT22;27926;48.062;7.474;2023-06-22T11:35:17;30.00;99.40
42261;DHT22;27926;48.062;7.474;2023-06-22T11:37:41;30.20;99.50
42261;DHT22;27926;48.062;7.474;2023-06-22T11:40:08;30.50;99.00
42261;DHT22;27926;48.062;7.474;2023-06-22T11:42:33;30.90;98.70
42261;DHT22;27926;48.062;7.474;2023-06-22T11:44:58;31.20;97.90
42261;DHT22;27926;48.062;7.474;2023-06-22T11:47:23;31.20;98.10
42261;DHT22;27926;48.062;7.474;2023-06-22T11:49:47;31.20;97.90
42261;DHT22;27926;48.062;7.474;2023-06-22T11:52:12;31.00;97.70
42261;DHT22;27926;48.062;7.474;2023-06-22T11:54:36;30.70;97.80
42261;DHT22;27926;48.062;7.474;2023-06-22T11:57:01;30.60;97.80
42261;DHT22;27926;48.062;7.474;2023-06-22T11:59:26;30.60;98.10
42261;DHT22;27926;48.062;7.474;2023-06-22T12:01:51;30.50;98.50
42261;DHT22;27926;48.062;7.474;2023-06-22T12:04:16;30.60;98.10
42261;DHT22;27926;48.062;7.474;2023-06-22T12:06:40;30.60;98.30
42261;DHT22;27926;48.062;7.474;2023-06-22T12:09:07;30.80;98.90
42261;DHT22;27926;48.062;7.474;2023-06-22T12:11:32;30.90;98.00
42261;DHT22;27926;48.062;7.474;2023-06-22T12:13:56;30.90;97.90
42261;DHT22;27926;48.062;7.474;2023-06-22T12:16:25;30.90;98.10
42261;DHT22;27926;48.062;7.474;2023-06-22T12:18:50;30.80;98.30
42261;DHT22;27926;48.062;7.474;2023-06-22T12:21:15;30.70;98.50
42261;DHT22;27926;48.062;7.474;2023-06-22T12:23:39;30.70;98.30
42261;DHT22;27926;48.062;7.474;2023-06-22T12:26:04;30.60;98.20
42261;DHT22;27926;48.062;7.474;2023-06-22T12:28:29;30.40;98.40
42261;DHT22;27926;48.062;7.474;2023-06-22T12:30:54;30.30;98.20
42261;DHT22;27926;48.062;7.474;2023-06-22T12:33:18;30.00;98.30
42261;DHT22;27926;48.062;7.474;2023-06-22T12:35:43;29.80;98.60
42261;DHT22;27926;48.062;7.474;2023-06-22T12:38:09;29.70;98.90
42261;DHT22;27926;48.062;7.474;2023-06-22T12:40:37;29.50;98.80
42261;DHT22;27926;48.062;7.474;2023-06-22T12:43:01;29.40;98.80
42261;DHT22;27926;48.062;7.474;2023-06-22T12:45:26;29.40;98.90
42261;DHT22;27926;48.062;7.474;2023-06-22T12:47:53;29.40;99.00
42261;DHT22;27926;48.062;7.474;2023-06-22T12:50:17;29.40;98.80
42261;DHT22;27926;48.062;7.474;2023-06-22T12:52:42;29.60;98.70
42261;DHT22;27926;48.062;7.474;2023-06-22T12:55:07;29.90;98.60
42261;DHT22;27926;48.062;7.474;2023-06-22T12:57:32;30.20;97.70
42261;DHT22;27926;48.062;7.474;2023-06-22T12:59:56;30.40;97.60
42261;DHT22;27926;48.062;7.474;2023-06-22T13:02:22;30.40;97.20
42261;DHT22;27926;48.062;7.474;2023-06-22T13:04:47;30.60;96.90
42261;DHT22;27926;48.062;7.474;2023-06-22T13:07:12;30.70;95.90
42261;DHT22;27926;48.062;7.474;2023-06-22T13:09:37;30.80;95.70
42261;DHT22;27926;48.062;7.474;2023-06-22T13:12:01;30.80;95.00
42261;DHT22;27926;48.062;7.474;2023-06-22T13:14:26;30.70;95.30
42261;DHT22;27926;48.062;7.474;2023-06-22T13:16:51;30.70;94.20
42261;DHT22;27926;48.062;7.474;2023-06-22T13:19:15;30.90;94.20
42261;DHT22;27926;48.062;7.474;2023-06-22T13:21:40;31.10;94.10
42261;DHT22;27926;48.062;7.474;2023-06-22T13:24:05;31.20;94.30
42261;DHT22;27926;48.062;7.474;2023-06-22T13:26:30;31.30;93.20
42261;DHT22;27926;48.062;7.474;2023-06-22T13:28:55;31.40;93.40
42261;DHT22;27926;48.062;7.474;2023-06-22T13:31:19;31.50;93.20
42261;DHT22;27926;48.062;7.474;2023-06-22T13:33:44;31.50;93.10
42261;DHT22;27926;48.062;7.474;2023-06-22T13:36:12;31.50;92.60
42261;DHT22;27926;48.062;7.474;2023-06-22T13:38:36;31.50;92.50
42261;DHT22;27926;48.062;7.474;2023-06-22T13:41:02;31.50;92.30
42261;DHT22;27926;48.062;7.474;2023-06-22T13:43:27;31.60;92.50
42261;DHT22;27926;48.062;7.474;2023-06-22T13:45:52;31.80;92.40
42261;DHT22;27926;48.062;7.474;2023-06-22T13:48:16;31.90;92.20
42261;DHT22;27926;48.062;7.474;2023-06-22T13:50:41;32.00;91.90
42261;DHT22;27926;48.062;7.474;2023-06-22T13:53:05;32.00;92.20
42261;DHT22;27926;48.062;7.474;2023-06-22T13:55:30;31.90;92.20
42261;DHT22;27926;48.062;7.474;2023-06-22T13:57:55;31.80;93.00
42261;DHT22;27926;48.062;7.474;2023-06-22T14:00:20;31.50;93.50
42261;DHT22;27926;48.062;7.474;2023-06-22T14:02:44;31.20;93.90
42261;DHT22;27926;48.062;7.474;2023-06-22T14:05:09;31.20;94.20
42261;DHT22;27926;48.062;7.474;2023-06-22T14:07:38;31.30;94.20
42261;DHT22;27926;48.062;7.474;2023-06-22T14:10:03;31.30;94.80
42261;DHT22;27926;48.062;7.474;2023-06-22T14:12:28;31.30;94.30
42261;DHT22;27926;48.062;7.474;2023-06-22T14:14:53;31.10;94.80
42261;DHT22;27926;48.062;7.474;2023-06-22T14:17:17;30.80;95.10
42261;DHT22;27926;48.062;7.474;2023-06-22T14:19:42;30.60;95.40
42261;DHT22;27926;48.062;7.474;2023-06-22T14:22:06;30.50;96.00
42261;DHT22;27926;48.062;7.474;2023-06-22T14:24:31;30.40;96.30
42261;DHT22;27926;48.062;7.474;2023-06-22T14:26:56;30.40;96.60
42261;DHT22;27926;48.062;7.474;2023-06-22T14:29:21;30.50;96.50
42261;DHT22;27926;48.062;7.474;2023-06-22T14:31:46;30.60;96.60
42261;DHT22;27926;48.062;7.474;2023-06-22T14:34:12;30.70;96.40
42261;DHT22;27926;48.062;7.474;2023-06-22T14:36:37;30.80;96.30
42261;DHT22;27926;48.062;7.474;2023-06-22T14:39:02;30.80;96.10
42261;DHT22;27926;48.062;7.474;2023-06-22T14:41:26;30.80;96.40
42261;DHT22;27926;48.062;7.474;2023-06-22T14:43:52;30.70;96.70
42261;DHT22;27926;48.062;7.474;2023-06-22T14:46:18;30.40;96.90
42261;DHT22;27926;48.062;7.474;2023-06-22T14:48:43;30.30;96.90
42261;DHT22;27926;48.062;7.474;2023-06-22T14:51:09;30.30;97.10
42261;DHT22;27926;48.062;7.474;2023-06-22T14:53:33;30.40;97.10
42261;DHT22;27926;48.062;7.474;2023-06-22T14:55:58;30.50;97.10
42261;DHT22;27926;48.062;7.474;2023-06-22T14:58:25;30.60;97.10
42261;DHT22;27926;48.062;7.474;2023-06-22T15:00:50;30.70;96.70
42261;DHT22;27926;48.062;7.474;2023-06-22T15:03:14;30.80;96.40
42261;DHT22;27926;48.062;7.474;2023-06-22T15:05:45;30.90;96.40
42261;DHT22;27926;48.062;7.474;2023-06-22T15:08:10;31.00;95.90
42261;DHT22;27926;48.062;7.474;2023-06-22T15:10:36;30.80;96.30
42261;DHT22;27926;48.062;7.474;2023-06-22T15:13:01;30.50;96.00
42261;DHT22;27926;48.062;7.474;2023-06-22T15:15:25;30.60;96.80
42261;DHT22;27926;48.062;7.474;2023-06-22T15:17:50;30.80;96.20
42261;DHT22;27926;48.062;7.474;2023-06-22T15:20:15;30.90;96.00
42261;DHT22;27926;48.062;7.474;2023-06-22T15:22:39;30.90;95.90